Time;durP1;ratioP1;P1;durP2;ratioP2;P2;SDS_P1;SDS_P2;PMS_P1;PMS_P2;Temp;Humidity;BMP_temperature;BMP_pressure;BME280_temperature;BME280_humidity;BME280_pressure;Samples;Min_cycle;Max_cycle;Signal;HPM_P1;HPM_P2
2022/07/04 00:00:54;;;;;;;9.40;5.10;;;;;;;18.67;87.49;100995.94;2081835;28;20607;-63
2022/07/04 00:02:01;;;;;;;6.85;4.50;;;;;;;18.67;87.46;100998.66;2081569;28;20052;-63
2022/07/04 00:03:05;;;;;;;10.93;4.72;;;;;;;18.65;87.52;101008.28;2070316;28;20049;-63
2022/07/04 00:04:07;;;;;;;5.90;4.60;;;;;;;18.63;87.43;101000.44;2069032;28;20050;-63
2022/07/04 00:05:10;;;;;;;11.18;4.80;;;;;;;18.62;87.47;100998.81;2057395;28;20404;-63
2022/07/04 00:06:15;;;;;;;7.60;4.68;;;;;;;18.61;87.44;101001.88;2065566;28;20054;-63
2022/07/04 00:07:17;;;;;;;6.63;4.90;;;;;;;18.59;87.56;100999.44;2077168;28;20705;-63
2022/07/04 00:08:19;;;;;;;7.32;4.47;;;;;;;18.58;87.48;100999.78;2081770;28;20064;-62
2022/07/04 00:09:22;;;;;;;6.50;5.00;;;;;;;18.56;87.49;100994.66;2082044;28;20045;-62
2022/07/04 00:10:24;;;;;;;7.57;4.47;;;;;;;18.55;87.47;100998.50;2080463;28;20076;-62
2022/07/04 00:11:28;;;;;;;8.13;4.75;;;;;;;18.54;87.53;101005.09;2072739;28;20498;-63
2022/07/04 00:12:33;;;;;;;7.18;4.88;;;;;;;18.54;87.65;100999.63;2065205;28;20490;-64
2022/07/04 00:13:39;;;;;;;10.23;4.70;;;;;;;18.52;87.74;100994.50;2080313;28;20057;-63
2022/07/04 00:14:41;;;;;;;9.10;5.07;;;;;;;18.52;87.91;100999.16;2080766;28;20049;-63
2022/07/04 00:15:45;;;;;;;8.07;4.50;;;;;;;18.53;87.81;100992.56;2070570;28;20061;-63
2022/07/04 00:16:47;;;;;;;6.47;4.22;;;;;;;18.49;87.70;100989.69;2072936;28;20045;-63
2022/07/04 00:17:50;;;;;;;7.05;4.57;;;;;;;18.50;87.71;100996.72;2065223;28;20053;-63
2022/07/04 00:18:54;;;;;;;7.13;4.72;;;;;;;18.51;87.68;100992.13;2055400;28;20404;-62
2022/07/04 00:19:57;;;;;;;7.68;4.50;;;;;;;18.50;87.61;100993.22;2073807;28;20038;-62
2022/07/04 00:20:59;;;;;;;8.85;4.82;;;;;;;18.46;87.63;100993.06;2073197;28;20044;-62
2022/07/04 00:22:03;;;;;;;5.28;4.20;;;;;;;18.46;87.79;100989.53;2065113;28;20049;-63
2022/07/04 00:23:07;;;;;;;7.47;4.40;;;;;;;18.48;87.67;100981.84;2071181;28;20057;-63
2022/07/04 00:24:11;;;;;;;8.30;4.38;;;;;;;18.48;87.69;100987.31;2058650;28;20046;-63
2022/07/04 00:25:15;;;;;;;5.78;4.18;;;;;;;18.45;87.38;100986.03;2061709;28;20435;-63
2022/07/04 00:26:17;;;;;;;8.57;4.43;;;;;;;18.44;87.57;100975.44;2064875;28;20126;-63
2022/07/04 00:27:19;;;;;;;8.85;4.50;;;;;;;18.45;87.45;100982.50;2073622;28;20386;-63
2022/07/04 00:28:21;;;;;;;7.45;4.72;;;;;;;18.42;87.46;100983.13;2077855;28;20041;-63
2022/07/04 00:29:23;;;;;;;8.77;4.30;;;;;;;18.42;87.44;100986.66;2080574;28;20504;-62
2022/07/04 00:30:28;;;;;;;8.80;4.35;;;;;;;18.42;87.26;100978.50;2072993;28;20050;-63
2022/07/04 00:31:29;;;;;;;9.40;4.60;;;;;;;18.42;87.20;100980.41;2069214;28;20295;-62
2022/07/04 00:32:34;;;;;;;6.88;4.95;;;;;;;18.40;87.35;100980.72;2073242;28;20054;-62
2022/07/04 00:33:38;;;;;;;8.25;4.57;;;;;;;18.39;87.12;100978.34;2073172;28;20034;-62
2022/07/04 00:34:40;;;;;;;7.75;5.35;;;;;;;18.39;87.13;100978.34;2077618;28;20045;-63
2022/07/04 00:35:42;;;;;;;10.95;5.18;;;;;;;18.37;87.39;100965.03;2081413;28;20041;-63
2022/07/04 00:36:46;;;;;;;8.70;4.95;;;;;;;18.39;87.19;100975.63;2072738;28;20034;-63
2022/07/04 00:37:49;;;;;;;10.70;4.85;;;;;;;18.40;87.07;100972.56;2073326;28;20058;-63
2022/07/04 00:38:52;;;;;;;6.85;4.97;;;;;;;18.40;87.20;100966.31;2081383;28;20049;-63
2022/07/04 00:39:55;;;;;;;7.28;5.00;;;;;;;18.40;86.83;100979.94;2080797;28;20481;-64
2022/07/04 00:41:00;;;;;;;8.18;5.45;;;;;;;18.40;86.76;100979.94;2081469;28;20044;-64
2022/07/04 00:42:02;;;;;;;7.50;4.75;;;;;;;18.39;86.45;100973.69;2080574;28;20516;-61
2022/07/04 00:43:05;;;;;;;8.10;4.70;;;;;;;18.38;86.39;100972.09;2072839;28;20049;-62
2022/07/04 00:44:11;;;;;;;6.88;4.80;;;;;;;18.38;86.26;100980.25;2080860;28;20038;-64
2022/07/04 00:45:15;;;;;;;10.73;4.97;;;;;;;18.37;86.12;100973.19;2087214;28;20050;-64
2022/07/04 00:46:25;;;;;;;9.13;4.80;;;;;;;18.34;86.04;100970.31;2090454;28;20052;-65
2022/07/04 00:47:28;;;;;;;8.20;4.70;;;;;;;18.34;86.14;100965.66;2087766;28;20401;-64
2022/07/04 00:48:36;;;;;;;8.85;4.97;;;;;;;18.33;85.92;100966.00;2080946;28;20057;-63
2022/07/04 00:49:40;;;;;;;8.25;5.05;;;;;;;18.33;86.02;100966.81;2074051;28;20025;-64
2022/07/04 00:50:47;;;;;;;7.45;4.88;;;;;;;18.32;85.97;100967.94;2080958;28;20046;-64
2022/07/04 00:51:49;;;;;;;10.55;4.53;;;;;;;18.30;85.87;100965.50;2073688;28;20474;-65
2022/07/04 00:52:54;;;;;;;18.67;4.68;;;;;;;18.28;85.80;100964.22;2073141;28;20073;-64
2022/07/04 00:53:56;;;;;;;6.45;4.60;;;;;;;18.29;85.73;100969.38;2080661;28;20060;-63
2022/07/04 00:55:00;;;;;;;5.85;4.63;;;;;;;18.27;85.52;100965.38;2083270;28;20708;-63
2022/07/04 00:56:01;;;;;;;9.07;4.70;;;;;;;18.27;85.70;100962.63;2073747;28;20057;-63
2022/07/04 00:57:03;;;;;;;10.18;4.65;;;;;;;18.26;85.61;100959.13;2063691;28;20043;-63
2022/07/04 00:58:07;;;;;;;7.03;4.47;;;;;;;18.26;85.59;100959.13;2064478;28;20065;-63
2022/07/04 00:59:14;;;;;;;12.00;4.80;;;;;;;18.26;85.51;100952.88;2072534;28;20539;-64
2022/07/04 01:00:19;;;;;;;9.80;4.72;;;;;;;18.26;85.43;100952.88;2073792;28;20041;-63
2022/07/04 01:01:22;;;;;;;6.63;4.63;;;;;;;18.22;85.60;100960.06;2074032;28;20772;-62
2022/07/04 01:02:24;;;;;;;10.35;4.95;;;;;;;18.22;85.85;100962.78;2067901;28;20049;-64
2022/07/04 01:03:26;;;;;;;7.35;4.70;;;;;;;18.21;85.83;100959.28;2065283;28;20769;-63
2022/07/04 01:04:29;;;;;;;7.78;4.70;;;;;;;18.20;85.77;100954.16;2072571;28;20041;-62
2022/07/04 01:05:30;;;;;;;7.72;4.72;;;;;;;18.19;86.03;100953.38;2070371;28;20041;-63
2022/07/04 01:06:33;;;;;;;5.50;4.57;;;;;;;18.21;85.92;100951.09;2072136;28;20057;-63
2022/07/04 01:07:36;;;;;;;11.43;4.43;;;;;;;18.18;86.02;100946.31;2078809;28;20044;-63
2022/07/04 01:08:41;;;;;;;13.50;7.22;;;;;;;18.16;85.97;100945.84;2080662;28;20025;-63
2022/07/04 01:09:48;;;;;;;6.90;4.40;;;;;;;18.18;85.57;100946.31;2080402;28;20048;-63
2022/07/04 01:10:54;;;;;;;5.72;4.25;;;;;;;18.17;85.71;100950.16;2080925;28;20044;-64
2022/07/04 01:11:57;;;;;;;7.93;4.40;;;;;;;18.17;85.91;100946.63;2072804;28;20425;-63
2022/07/04 01:12:59;;;;;;;9.35;4.30;;;;;;;18.16;85.70;100945.00;2063167;28;20046;-65
2022/07/04 01:14:02;;;;;;;6.72;4.05;;;;;;;18.18;85.48;100946.31;2072580;28;20046;-63
2022/07/04 01:15:07;;;;;;;4.43;3.75;;;;;;;18.19;85.37;100942.47;2072394;28;20050;-64
2022/07/04 01:16:12;;;;;;;8.15;4.15;;;;;;;18.21;85.12;100948.38;2080364;28;20052;-64
2022/07/04 01:17:17;;;;;;;8.43;3.72;;;;;;;18.22;85.14;100951.91;2079429;28;20053;-64
2022/07/04 01:18:22;;;;;;;7.70;3.88;;;;;;;18.20;85.08;100946.00;2080696;28;20057;-64
2022/07/04 01:19:27;;;;;;;5.28;3.83;;;;;;;18.19;85.08;100950.66;2081600;28;20040;-64
2022/07/04 01:20:35;;;;;;;5.78;4.00;;;;;;;18.19;85.13;100953.38;2075073;28;20045;-64
2022/07/04 01:21:36;;;;;;;7.50;4.28;;;;;;;18.18;85.21;100950.94;2074567;28;20033;-64
2022/07/04 01:22:39;;;;;;;8.60;3.75;;;;;;;18.20;84.91;100949.50;2072784;28;20115;-63
2022/07/04 01:23:41;;;;;;;5.72;3.58;;;;;;;18.20;84.76;100949.50;2071604;28;20045;-63
2022/07/04 01:24:44;;;;;;;5.68;3.40;;;;;;;18.18;84.46;100946.31;2069043;28;20050;-62
2022/07/04 01:25:46;;;;;;;4.55;3.58;;;;;;;18.19;84.14;100953.38;2072778;28;20030;-62
2022/07/04 01:26:48;;;;;;;3.85;3.20;;;;;;;18.17;84.22;100947.44;2074469;28;20050;-63
2022/07/04 01:27:50;;;;;;;4.50;3.40;;;;;;;18.17;83.86;100942.00;2088591;28;20052;-62
2022/07/04 01:28:53;;;;;;;4.88;3.30;;;;;;;18.17;83.86;100949.34;2072777;28;20037;-62
2022/07/04 01:29:59;;;;;;;4.70;3.50;;;;;;;18.19;83.66;100945.19;2060032;28;20049;-63
2022/07/04 01:31:05;;;;;;;5.63;3.70;;;;;;;18.21;83.46;100950.31;2068112;28;20068;-64
2022/07/04 01:32:11;;;;;;;5.43;3.50;;;;;;;18.20;83.30;100949.50;2080779;28;20048;-62
2022/07/04 01:33:14;;;;;;;5.80;3.33;;;;;;;18.19;83.04;100941.66;2079811;28;20037;-62
2022/07/04 01:34:16;;;;;;;4.55;3.28;;;;;;;18.21;82.84;100945.66;2079612;28;20048;-63
2022/07/04 01:35:19;;;;;;;6.22;3.40;;;;;;;18.20;82.78;100946.78;2072333;28;20046;-62
2022/07/04 01:36:21;;;;;;;9.00;3.25;;;;;;;18.17;82.73;100944.72;2076014;28;20044;-63
2022/07/04 01:37:27;;;;;;;6.97;3.47;;;;;;;18.19;82.50;100947.91;2081285;28;20405;-63
2022/07/04 01:38:29;;;;;;;6.22;3.28;;;;;;;18.22;82.42;100952.72;2079884;28;20064;-63
2022/07/04 01:39:33;;;;;;;5.53;3.47;;;;;;;18.22;82.06;100952.72;2064535;28;20069;-63
2022/07/04 01:40:38;;;;;;;4.35;3.17;;;;;;;18.21;81.93;100945.66;2057264;28;20045;-63
2022/07/04 01:41:40;;;;;;;4.78;3.33;;;;;;;18.18;81.66;100945.50;2072367;28;20050;-62
2022/07/04 01:42:46;;;;;;;9.95;3.30;;;;;;;18.19;81.89;100950.66;2081069;28;20041;-63
2022/07/04 01:43:51;;;;;;;6.70;3.38;;;;;;;18.20;81.57;100944.06;2081367;28;20389;-63
2022/07/04 01:44:53;;;;;;;5.20;3.08;;;;;;;18.20;81.55;100951.44;2080598;28;20056;-62
2022/07/04 01:45:55;;;;;;;6.63;3.30;;;;;;;18.18;81.63;100951.75;2072423;28;20038;-62
2022/07/04 01:46:58;;;;;;;9.63;3.45;;;;;;;18.19;81.52;100949.81;2066985;28;20037;-62
2022/07/04 01:48:01;;;;;;;6.13;3.45;;;;;;;18.16;81.53;100948.56;2074128;28;20052;-63
2022/07/04 01:49:06;;;;;;;5.45;3.10;;;;;;;18.15;81.65;100957.03;2078878;28;20045;-63
2022/07/04 01:50:12;;;;;;;6.60;2.80;;;;;;;18.15;81.61;100957.03;2067812;28;20050;-63
2022/07/04 01:51:13;;;;;;;4.03;3.28;;;;;;;18.13;81.49;100948.41;2075056;28;20037;-63
2022/07/04 01:52:18;;;;;;;6.70;3.20;;;;;;;18.13;81.50;100949.19;2080422;28;20034;-63
2022/07/04 01:53:20;;;;;;;4.20;3.25;;;;;;;18.09;81.49;100952.88;2072487;28;20494;-63
2022/07/04 01:54:21;;;;;;;6.50;3.10;;;;;;;18.08;81.57;100956.72;2056547;28;20483;-63
2022/07/04 01:55:24;;;;;;;4.97;3.08;;;;;;;18.12;81.30;100953.03;2072282;28;20049;-64
2022/07/04 01:56:30;;;;;;;5.40;2.95;;;;;;;18.13;81.19;100951.13;2079684;28;20426;-63
2022/07/04 01:57:33;;;;;;;3.20;2.90;;;;;;;18.10;81.02;100955.28;2078649;28;20049;-63
2022/07/04 01:58:36;;;;;;;3.63;2.70;;;;;;;18.10;80.89;100955.28;2080825;28;20037;-64
2022/07/04 02:02:22;;;;;;;6.97;2.80;;;;;;;18.06;80.63;100951.56;2075793;28;20547;-64
2022/07/04 02:03:24;;;;;;;4.60;2.78;;;;;;;18.07;80.72;100958.63;2081381;28;20045;-63
2022/07/04 02:04:26;;;;;;;6.20;2.72;;;;;;;18.04;80.62;100959.28;2080503;28;20040;-63
2022/07/04 02:05:29;;;;;;;3.17;2.70;;;;;;;18.06;80.50;100955.13;2066751;28;20058;-63
2022/07/04 02:06:32;;;;;;;4.60;2.47;;;;;;;18.07;80.42;100955.91;2072735;28;20449;-64
2022/07/04 02:07:34;;;;;;;5.32;2.60;;;;;;;18.05;80.50;100958.16;2072426;28;20064;-64
2022/07/04 02:10:01;;;;;;;4.75;2.55;;;;;;;18.06;80.28;100951.56;2072480;28;20050;-64
2022/07/04 02:11:06;;;;;;;4.05;2.35;;;;;;;18.07;80.26;100950.47;2080803;28;20382;-64
2022/07/04 02:13:29;;;;;;;4.30;2.58;;;;;;;18.09;79.92;100947.41;2066793;28;20054;-64
2022/07/04 02:14:33;;;;;;;2.97;2.60;;;;;;;18.09;80.03;100948.22;2060949;28;20049;-63
2022/07/04 02:15:38;;;;;;;6.38;2.72;;;;;;;18.06;79.88;100935.25;2071281;28;20144;-63
2022/07/04 02:16:41;;;;;;;5.28;2.90;;;;;;;18.08;79.63;100946.63;2073794;28;20525;-63
2022/07/04 02:17:44;;;;;;;4.45;2.70;;;;;;;18.09;79.55;100941.97;2056743;28;20398;-64
2022/07/04 02:18:47;;;;;;;4.85;2.80;;;;;;;18.06;79.70;100943.41;2064131;28;20050;-63
2022/07/04 02:19:51;;;;;;;3.60;2.40;;;;;;;18.09;79.67;100945.50;2065064;28;20038;-65
2022/07/04 02:20:53;;;;;;;3.45;2.38;;;;;;;18.06;79.49;100948.84;2072946;28;20397;-63
2022/07/04 02:21:57;;;;;;;5.13;2.90;;;;;;;18.07;79.60;100950.47;2079634;28;20060;-62
2022/07/04 02:22:59;;;;;;;3.13;2.70;;;;;;;18.09;79.65;100947.41;2072504;28;20061;-63
2022/07/04 02:24:02;;;;;;;4.88;2.60;;;;;;;18.09;79.59;100950.16;2078405;28;20521;-62
2022/07/04 02:25:11;;;;;;;5.07;2.78;;;;;;;18.10;79.63;100952.56;2071954;28;20050;-62
2022/07/04 02:26:12;;;;;;;3.83;2.70;;;;;;;18.13;79.69;100942.97;2071774;28;20976;-63
2022/07/04 02:27:15;;;;;;;4.47;2.83;;;;;;;18.13;79.58;100949.19;2079119;28;20053;-63
2022/07/04 02:28:18;;;;;;;3.00;2.45;;;;;;;18.14;79.65;100948.06;2064425;28;20042;-63
2022/07/04 02:29:23;;;;;;;5.97;2.70;;;;;;;18.15;79.63;100941.50;2065099;28;20542;-63
2022/07/04 02:30:26;;;;;;;4.63;2.97;;;;;;;18.12;79.56;100946.78;2079245;28;20452;-63
2022/07/04 02:31:30;;;;;;;6.10;2.50;;;;;;;18.12;79.66;100949.50;2072298;28;20037;-62
2022/07/04 02:32:35;;;;;;;3.08;2.67;;;;;;;18.12;79.84;100947.59;2072474;28;20049;-63
2022/07/04 02:33:40;;;;;;;6.55;2.70;;;;;;;18.12;79.88;100941.34;2080366;28;20497;-63
2022/07/04 02:34:43;;;;;;;6.07;3.00;;;;;;;18.09;79.79;100942.78;2078108;28;20457;-63
2022/07/04 02:35:47;;;;;;;4.65;2.70;;;;;;;18.07;79.97;100939.59;2087461;28;20049;-63
2022/07/04 02:36:49;;;;;;;3.38;2.80;;;;;;;18.08;80.20;100941.19;2079958;28;20053;-63
2022/07/04 02:37:52;;;;;;;3.53;2.83;;;;;;;18.10;80.10;100938.94;2080078;28;20045;-63
2022/07/04 02:38:53;;;;;;;6.93;3.00;;;;;;;18.09;80.14;100940.06;2063616;28;20066;-63
2022/07/04 02:40:05;;;;;;;3.30;2.70;;;;;;;18.10;80.06;100941.69;2064450;28;20584;-63
2022/07/04 02:41:07;;;;;;;6.18;2.70;;;;;;;18.11;80.11;100943.25;2073385;28;20038;-64
2022/07/04 02:42:09;;;;;;;5.43;3.22;;;;;;;18.14;80.06;100939.91;2080625;28;20037;-64
2022/07/04 02:43:11;;;;;;;5.00;2.92;;;;;;;18.09;79.92;100942.78;2080035;28;20050;-64
2022/07/04 02:44:14;;;;;;;3.83;2.90;;;;;;;18.10;80.10;100938.16;2079275;28;20087;-63
2022/07/04 02:45:16;;;;;;;5.93;2.90;;;;;;;18.10;79.96;100944.41;2080390;28;20049;-65
2022/07/04 02:46:18;;;;;;;3.42;2.83;;;;;;;18.10;79.95;100933.50;2070437;28;20076;-64
2022/07/04 02:47:20;;;;;;;7.35;3.00;;;;;;;18.11;79.93;100943.25;2072230;28;20380;-62
2022/07/04 02:48:23;;;;;;;6.90;3.05;;;;;;;18.15;80.17;100933.34;2072500;28;20053;-65
2022/07/04 02:49:28;;;;;;;3.00;2.70;;;;;;;18.15;80.12;100938.78;2072117;28;20037;-62
2022/07/04 02:50:30;;;;;;;4.13;2.90;;;;;;;18.15;79.88;100943.41;2076759;28;20041;-63
2022/07/04 02:51:35;;;;;;;5.95;2.60;;;;;;;18.20;80.03;100935.09;2079908;28;20041;-64
2022/07/04 02:52:40;;;;;;;4.35;3.10;;;;;;;18.17;79.62;100942.00;2080783;28;20055;-64
2022/07/04 02:53:45;;;;;;;4.15;3.05;;;;;;;18.23;79.63;100938.00;2080657;28;20129;-63
2022/07/04 02:54:48;;;;;;;5.53;2.83;;;;;;;18.23;79.45;100937.19;2080129;28;20057;-63
2022/07/04 02:55:51;;;;;;;4.95;2.58;;;;;;;18.23;79.28;100932.53;2056579;28;20047;-64
2022/07/04 02:56:55;;;;;;;3.17;2.72;;;;;;;18.23;79.39;100937.19;2065114;28;20188;-64
2022/07/04 02:57:58;;;;;;;10.88;3.13;;;;;;;18.25;79.20;100941.19;2077885;28;20057;-64
2022/07/04 02:59:04;;;;;;;3.65;2.65;;;;;;;18.28;78.76;100929.66;2088103;28;20436;-64
2022/07/04 03:00:06;;;;;;;4.68;2.85;;;;;;;18.35;78.62;100944.69;2070743;28;20560;-62
2022/07/04 03:01:08;;;;;;;4.25;2.60;;;;;;;18.38;78.53;100944.88;2060443;28;20502;-63
2022/07/04 03:02:10;;;;;;;3.25;2.83;;;;;;;18.43;78.56;100941.19;2076351;28;20048;-64
2022/07/04 03:03:12;;;;;;;4.90;2.60;;;;;;;18.46;78.59;100940.53;2072010;28;20427;-63
2022/07/04 03:04:18;;;;;;;4.13;2.45;;;;;;;18.50;78.34;100941.47;2072239;28;20403;-63
2022/07/04 03:05:23;;;;;;;3.47;2.90;;;;;;;18.54;77.93;100942.44;2079785;28;20049;-63
2022/07/04 03:06:26;;;;;;;5.15;2.92;;;;;;;18.60;77.48;100946.59;2080316;28;20050;-63
2022/07/04 03:07:32;;;;;;;5.10;3.00;;;;;;;18.64;77.34;100952.22;2077240;28;20065;-62
2022/07/04 03:08:35;;;;;;;4.35;3.15;;;;;;;18.61;76.81;100942.75;2079432;28;20056;-63
2022/07/04 03:09:42;;;;;;;9.85;3.00;;;;;;;18.59;77.13;100944.19;2073360;28;20046;-64
2022/07/04 03:10:46;;;;;;;6.90;2.60;;;;;;;18.55;77.35;100944.03;2080006;28;20041;-63
2022/07/04 03:11:48;;;;;;;4.70;2.35;;;;;;;18.55;77.19;100945.97;2080994;28;20095;-64
2022/07/04 03:12:50;;;;;;;6.35;2.58;;;;;;;18.56;77.46;100942.91;2080647;28;20033;-63
2022/07/04 03:13:52;;;;;;;10.10;3.05;;;;;;;18.51;77.21;100943.88;2080396;28;20516;-64
2022/07/04 03:14:53;;;;;;;7.63;3.10;;;;;;;18.53;77.42;100946.28;2080522;28;20037;-63
2022/07/04 03:15:59;;;;;;;5.28;2.75;;;;;;;18.55;77.70;100938.59;2075022;28;20053;-64
2022/07/04 03:17:00;;;;;;;4.18;2.65;;;;;;;18.55;77.21;100944.03;2076288;28;20037;-64
2022/07/04 03:18:04;;;;;;;3.83;2.60;;;;;;;18.53;76.99;100943.56;2072019;28;20054;-63
2022/07/04 03:19:06;;;;;;;7.03;3.00;;;;;;;18.54;76.62;100942.44;2078340;28;20046;-63
2022/07/04 03:20:10;;;;;;;3.25;2.65;;;;;;;18.55;76.61;100946.75;2079423;28;20048;-63
2022/07/04 03:21:18;;;;;;;4.32;2.67;;;;;;;18.58;77.08;100948.84;2065134;28;20045;-64
2022/07/04 03:22:20;;;;;;;4.57;2.88;;;;;;;18.58;76.61;100948.84;2056126;28;20058;-63
2022/07/04 03:23:23;;;;;;;4.78;2.58;;;;;;;18.60;76.62;100956.69;2070426;28;20409;-63
2022/07/04 03:24:25;;;;;;;6.30;2.38;;;;;;;18.67;76.44;100949.63;2080521;28;20057;-63
2022/07/04 03:25:29;;;;;;;5.38;2.40;;;;;;;18.74;76.12;100941.00;2080488;28;20042;-63
2022/07/04 03:26:37;;;;;;;8.52;3.17;;;;;;;18.78;75.56;100949.31;2079942;28;20394;-64
2022/07/04 03:27:39;;;;;;;3.55;2.50;;;;;;;18.75;76.01;100951.56;2079692;28;20045;-64
2022/07/04 03:28:43;;;;;;;4.22;2.72;;;;;;;18.79;75.41;100949.00;2066473;28;20654;-65
2022/07/04 03:29:47;;;;;;;5.00;3.00;;;;;;;18.91;74.85;100945.59;2073655;28;20037;-63
2022/07/04 03:30:50;;;;;;;4.90;3.35;;;;;;;18.87;73.85;100942.72;2088814;28;20071;-63
2022/07/04 03:31:53;;;;;;;5.35;3.15;;;;;;;18.87;74.15;100945.44;2073276;28;20053;-64
2022/07/04 03:32:55;;;;;;;5.85;3.00;;;;;;;18.87;74.42;100940.00;2066308;28;20577;-63
2022/07/04 03:34:00;;;;;;;3.65;2.80;;;;;;;18.89;74.45;100945.94;2080747;28;20480;-63
2022/07/04 03:35:01;;;;;;;4.65;2.55;;;;;;;18.97;73.66;100945.09;2081934;28;20037;-64
2022/07/04 03:36:04;;;;;;;6.65;3.08;;;;;;;19.07;72.97;100941.19;2065761;28;20197;-63
2022/07/04 03:37:07;;;;;;;3.90;3.00;;;;;;;19.18;72.55;100939.72;2057322;28;20043;-63
2022/07/04 03:38:12;;;;;;;5.80;3.08;;;;;;;19.31;72.32;100943.34;2050869;28;20412;-63
2022/07/04 03:39:14;;;;;;;4.60;2.85;;;;;;;19.36;72.63;100953.28;2059152;28;20047;-64
2022/07/04 03:40:21;;;;;;;3.75;2.60;;;;;;;19.36;71.66;100947.84;2066106;28;20057;-65
2022/07/04 03:41:28;;;;;;;6.05;2.92;;;;;;;19.37;71.83;100944.78;2074847;28;20065;-66
2022/07/04 03:42:31;;;;;;;4.88;2.70;;;;;;;19.34;72.50;100947.34;2080801;28;20041;-64
2022/07/04 03:43:33;;;;;;;7.40;3.33;;;;;;;19.37;71.75;100946.72;2081131;28;20457;-63
2022/07/04 03:44:36;;;;;;;8.55;3.53;;;;;;;19.40;71.80;100946.84;2081571;28;20045;-64
2022/07/04 03:45:40;;;;;;;9.25;2.80;;;;;;;19.56;71.29;100947.09;2082264;28;20440;-64
2022/07/04 03:46:44;;;;;;;6.20;3.20;;;;;;;19.91;70.32;100941.44;2065404;28;20048;-64
2022/07/04 03:47:48;;;;;;;8.25;2.95;;;;;;;20.27;69.35;100945.47;2066788;28;20042;-64
2022/07/04 03:48:50;;;;;;;6.10;2.95;;;;;;;20.57;67.61;100954.41;2081722;28;20521;-64
2022/07/04 03:49:52;;;;;;;8.30;3.28;;;;;;;20.66;67.42;100952.38;2081797;28;20042;-64
2022/07/04 03:50:55;;;;;;;9.98;3.00;;;;;;;20.77;67.90;100952.75;2081986;28;20049;-64
2022/07/04 03:52:03;;;;;;;7.60;3.45;;;;;;;21.02;66.45;100951.66;2065798;28;20050;-64
2022/07/04 03:53:09;;;;;;;7.32;3.20;;;;;;;21.13;65.84;100941.09;2063062;28;20046;-62
2022/07/04 03:54:13;;;;;;;8.93;3.97;;;;;;;21.21;65.64;100951.09;2080388;28;20701;-63
2022/07/04 03:55:17;;;;;;;12.15;3.53;;;;;;;21.23;65.92;100953.50;2065530;28;20046;-63
2022/07/04 03:56:22;;;;;;;7.57;2.97;;;;;;;21.10;65.85;100951.91;2058525;28;20066;-65
2022/07/04 03:57:25;;;;;;;6.05;3.10;;;;;;;21.26;65.45;100950.09;2067418;28;20526;-63
2022/07/04 03:58:28;;;;;;;9.30;3.00;;;;;;;21.62;64.38;100956.72;2080087;28;20048;-64
2022/07/04 03:59:33;;;;;;;4.07;2.70;;;;;;;22.07;63.23;100948.31;2073565;28;20069;-62
2022/07/04 04:00:37;;;;;;;12.40;3.38;;;;;;;22.42;62.40;100948.56;2059525;28;20042;-63
2022/07/04 04:01:41;;;;;;;8.98;2.60;;;;;;;22.62;60.99;100941.25;2078468;28;20054;-63
2022/07/04 04:02:46;;;;;;;4.90;2.75;;;;;;;22.71;60.05;100938.38;2065655;28;20034;-64
2022/07/04 04:05:30;;;;;;;6.05;2.70;;;;;;;22.46;60.90;100942.38;2082271;28;20033;-63
2022/07/04 04:06:33;;;;;;;5.47;2.78;;;;;;;22.13;61.29;100932.44;2080758;28;20038;-62
2022/07/04 04:07:35;;;;;;;4.88;2.45;;;;;;;22.01;61.63;100938.75;2081691;28;20045;-61
2022/07/04 04:08:40;;;;;;;3.90;2.45;;;;;;;21.92;61.78;100938.88;2082014;28;20041;-63
2022/07/04 04:09:43;;;;;;;6.97;2.45;;;;;;;21.87;62.14;100939.13;2072989;28;20054;-64
2022/07/04 04:10:48;;;;;;;5.28;2.50;;;;;;;21.82;62.38;100930.38;2058160;28;20054;-63
2022/07/04 04:11:53;;;;;;;5.70;2.53;;;;;;;21.78;63.00;100941.19;2065199;28;20518;-64
2022/07/04 04:12:58;;;;;;;2.83;2.33;;;;;;;21.65;62.86;100937.66;2080572;28;20056;-64
2022/07/04 04:14:00;;;;;;;5.30;2.45;;;;;;;21.57;63.30;100935.09;2081103;28;20046;-63
2022/07/04 04:15:02;;;;;;;2.45;2.25;;;;;;;21.45;63.15;100936.69;2073371;28;20034;-64
2022/07/04 04:16:07;;;;;;;5.55;2.53;;;;;;;21.39;63.84;100938.03;2073363;28;20042;-64
2022/07/04 04:17:09;;;;;;;7.35;2.40;;;;;;;21.30;64.07;100937.31;2066591;28;20049;-64
2022/07/04 04:18:11;;;;;;;4.53;2.50;;;;;;;21.26;63.88;100936.44;2073495;28;20030;-64
2022/07/04 04:19:14;;;;;;;6.25;2.33;;;;;;;21.27;63.92;100932.53;2081226;28;20045;-63
2022/07/04 04:20:16;;;;;;;4.22;2.70;;;;;;;21.19;64.19;100930.72;2081883;28;20056;-65
2022/07/04 04:21:21;;;;;;;5.43;3.00;;;;;;;21.05;64.63;100931.03;2073259;28;20050;-64
2022/07/04 04:22:23;;;;;;;3.47;2.65;;;;;;;20.97;64.52;100935.50;2073867;28;20042;-63
2022/07/04 04:23:24;;;;;;;8.48;2.80;;;;;;;20.91;64.97;100931.38;2073364;28;20053;-63
2022/07/04 04:24:29;;;;;;;4.53;2.80;;;;;;;20.83;64.95;100935.78;2072725;28;20053;-63
2022/07/04 04:25:31;;;;;;;7.97;2.60;;;;;;;20.81;65.69;100942.75;2081830;28;20039;-63
2022/07/04 04:26:35;;;;;;;4.55;2.92;;;;;;;20.80;65.49;100932.94;2081216;28;20060;-63
2022/07/04 04:27:37;;;;;;;10.52;2.50;;;;;;;20.80;65.51;100941.13;2076061;28;20034;-64
2022/07/04 04:28:40;;;;;;;6.65;2.50;;;;;;;20.89;65.33;100941.84;2065673;28;20050;-63
2022/07/04 04:29:43;;;;;;;3.95;2.63;;;;;;;20.89;65.39;100927.38;2073518;28;20034;-64
2022/07/04 04:30:45;;;;;;;3.45;2.20;;;;;;;20.86;64.95;100939.78;2072905;28;20053;-64
2022/07/04 04:31:47;;;;;;;5.38;3.00;;;;;;;21.10;64.59;100940.97;2065591;28;20418;-63
2022/07/04 04:32:50;;;;;;;12.27;2.88;;;;;;;21.33;64.13;100933.13;2065471;28;20053;-63
2022/07/04 04:33:55;;;;;;;5.72;2.75;;;;;;;21.38;63.57;100936.47;2073890;28;20049;-63
2022/07/04 04:34:58;;;;;;;4.07;2.22;;;;;;;21.48;63.10;100932.47;2081610;28;20429;-64
2022/07/04 04:36:03;;;;;;;5.07;2.30;;;;;;;21.65;63.26;100929.47;2081139;28;20041;-63
2022/07/04 04:37:05;;;;;;;3.45;2.08;;;;;;;21.97;62.12;100935.09;2065354;28;20046;-64
2022/07/04 04:38:07;;;;;;;5.57;2.42;;;;;;;21.89;62.66;100936.84;2056713;28;20039;-64
2022/07/04 04:39:09;;;;;;;6.68;2.47;;;;;;;21.60;62.76;100937.94;2056788;28;20034;-64
2022/07/04 04:40:11;;;;;;;4.80;2.40;;;;;;;21.41;63.50;100938.50;2058373;28;20039;-64
2022/07/04 04:41:17;;;;;;;6.30;2.40;;;;;;;21.28;64.02;100934.16;2073348;28;20046;-64
2022/07/04 04:42:20;;;;;;;3.97;2.30;;;;;;;21.18;64.65;100938.13;2080243;28;20049;-64
2022/07/04 04:43:25;;;;;;;5.47;2.50;;;;;;;21.12;64.78;100934.00;2079369;28;20041;-63
2022/07/04 04:44:27;;;;;;;4.45;2.58;;;;;;;21.06;64.77;100933.44;2081560;28;20046;-64
2022/07/04 04:45:30;;;;;;;4.85;2.40;;;;;;;21.01;65.32;100939.13;2064595;28;20050;-66
2022/07/04 04:46:36;;;;;;;7.22;2.60;;;;;;;20.99;64.94;100930.47;2057131;28;20043;-64
2022/07/04 04:47:38;;;;;;;7.15;2.70;;;;;;;20.92;63.79;100935.69;2079417;28;20037;-65
2022/07/04 04:48:42;;;;;;;7.40;2.80;;;;;;;20.98;64.14;100920.69;2083362;28;20045;-63
2022/07/04 04:49:47;;;;;;;5.28;2.40;;;;;;;20.95;63.91;100928.75;2086409;28;20413;-63
2022/07/04 04:50:52;;;;;;;4.22;2.30;;;;;;;20.91;64.02;100931.38;2080869;28;20060;-63
2022/07/04 04:51:54;;;;;;;8.93;2.45;;;;;;;20.99;63.48;100921.47;2081209;28;20504;-63
2022/07/04 04:52:58;;;;;;;5.90;2.40;;;;;;;20.97;63.71;100934.69;2081196;28;20056;-64
2022/07/04 04:54:08;;;;;;;5.88;2.80;;;;;;;21.03;63.38;100927.88;2081512;28;20060;-64
2022/07/04 04:55:10;;;;;;;4.45;2.53;;;;;;;21.12;62.91;100919.53;2081366;28;20060;-63
2022/07/04 04:56:13;;;;;;;6.57;2.03;;;;;;;21.34;62.22;100916.34;2080119;28;20037;-64
2022/07/04 04:57:15;;;;;;;4.00;2.00;;;;;;;21.60;61.02;100921.50;2078151;28;20049;-63
2022/07/04 04:58:19;;;;;;;3.58;1.90;;;;;;;21.63;61.11;100923.56;2078450;28;20057;-64
2022/07/04 04:59:26;;;;;;;2.85;2.03;;;;;;;21.52;61.19;100925.16;2079948;28;20033;-64
2022/07/04 05:00:31;;;;;;;3.25;2.28;;;;;;;21.46;61.85;100921.06;2077447;28;20053;-62
2022/07/04 05:01:41;;;;;;;2.00;1.80;;;;;;;21.47;62.64;100925.41;2074345;28;20037;-63
2022/07/04 05:02:45;;;;;;;4.68;1.90;;;;;;;21.47;61.47;100919.94;2071812;28;20038;-64